createdAt,value
2018-07-10T00:00:02.342Z,99.99
2018-07-10T00:01:02.420Z,99.99
2018-07-10T00:02:02.439Z,99.99
2018-07-10T00:03:02.500Z,99.99
2018-07-10T00:04:02.542Z,99.99
2018-07-10T00:05:02.593Z,99.99
2018-07-10T00:06:02.677Z,99.99
2018-07-10T00:07:02.690Z,99.99
2018-07-10T00:08:02.746Z,99.99
2018-07-10T00:09:02.794Z,99.99
2018-07-10T00:10:02.846Z,99.99
2018-07-10T00:11:03.183Z,99.99
2018-07-10T00:12:02.944Z,99.99
2018-07-10T00:13:03.015Z,99.99
2018-07-10T00:14:03.043Z,99.99
2018-07-10T00:15:03.094Z,99.99
2018-07-10T00:16:03.146Z,99.99
2018-07-10T00:17:03.222Z,99.99
2018-07-10T00:18:03.269Z,99.99
2018-07-10T00:19:03.299Z,99.99
2018-07-10T00:20:03.349Z,99.99
2018-07-10T00:21:03.399Z,99.99
2018-07-10T00:22:03.448Z,99.99
2018-07-10T00:23:03.520Z,99.99
2018-07-10T00:24:03.550Z,99.99
2018-07-10T00:25:03.600Z,99.99
2018-07-10T00:26:03.648Z,99.99
2018-07-10T00:27:03.701Z,99.99
2018-07-10T00:28:03.774Z,99.99
2018-07-10T00:29:03.801Z,99.99
2018-07-10T00:30:03.850Z,99.99
2018-07-10T00:31:03.899Z,99.99
2018-07-10T00:32:03.949Z,99.99
2018-07-10T00:33:04.022Z,99.99
2018-07-10T00:34:04.052Z,99.99
2018-07-10T00:35:04.100Z,99.99
2018-07-10T00:36:04.153Z,99.99
2018-07-10T00:37:04.201Z,99.99
2018-07-10T00:38:04.280Z,99.99
2018-07-10T00:39:04.302Z,99.99
2018-07-10T00:40:04.351Z,99.99
2018-07-10T00:41:04.409Z,99.99
2018-07-10T00:42:04.452Z,99.99
2018-07-10T00:43:04.528Z,99.99
2018-07-10T00:44:04.588Z,99.99
2018-07-10T00:45:05.153Z,99.99
2018-07-10T00:46:04.653Z,99.99
2018-07-10T00:47:04.703Z,99.99
2018-07-10T00:48:04.755Z,99.99
2018-07-10T00:49:04.827Z,99.99
2018-07-10T00:50:04.853Z,99.99
2018-07-10T00:51:04.904Z,99.99
2018-07-10T00:52:04.960Z,99.99
2018-07-10T00:53:05.044Z,99.99
2018-07-10T00:54:05.053Z,99.99
2018-07-10T00:55:05.110Z,99.99
2018-07-10T00:56:05.159Z,99.99
2018-07-10T00:57:05.206Z,99.99
2018-07-10T00:58:05.277Z,99.99
2018-07-10T00:59:05.331Z,99.99
2018-07-10T01:00:05.358Z,99.99
2018-07-10T01:01:05.405Z,99.99
2018-07-10T01:02:05.460Z,99.99
2018-07-10T01:03:05.507Z,99.99
2018-07-10T01:04:05.584Z,99.99
2018-07-10T01:05:05.606Z,99.99
2018-07-10T01:06:05.658Z,99.99
2018-07-10T01:07:05.708Z,99.99
2018-07-10T01:08:05.756Z,99.99
2018-07-10T01:09:05.843Z,99.99
2018-07-10T01:10:05.855Z,99.99
2018-07-10T01:11:05.906Z,99.99
2018-07-10T01:12:05.968Z,99.99
2018-07-10T01:13:06.010Z,99.99
2018-07-10T01:14:06.087Z,99.99
2018-07-10T01:15:06.111Z,99.99
2018-07-10T01:16:06.155Z,99.99
2018-07-10T01:17:06.206Z,99.99
2018-07-10T01:18:06.255Z,99.99
2018-07-10T01:19:06.332Z,99.99
2018-07-10T01:20:06.386Z,99.99
2018-07-10T01:21:06.407Z,99.99
2018-07-10T01:22:06.457Z,99.99
2018-07-10T01:23:06.507Z,99.99
2018-07-10T01:24:06.556Z,99.99
2018-07-10T01:25:06.632Z,99.99
2018-07-10T01:26:06.659Z,99.99
2018-07-10T01:27:06.709Z,99.99
2018-07-10T01:28:06.757Z,99.99
2018-07-10T01:29:06.806Z,99.99
2018-07-10T01:30:06.882Z,99.99
2018-07-10T01:31:06.911Z,99.99
2018-07-10T01:32:06.958Z,99.99
2018-07-10T01:33:07.014Z,99.99
2018-07-10T01:34:07.061Z,99.99
2018-07-10T01:35:07.142Z,99.99
2018-07-10T01:36:07.161Z,99.99
2018-07-10T01:37:07.213Z,99.99
2018-07-10T01:38:07.262Z,99.99
2018-07-10T01:39:07.307Z,99.99
2018-07-10T01:40:07.387Z,99.99
2018-07-10T01:41:07.406Z,99.99
2018-07-10T01:42:07.457Z,99.99
2018-07-10T01:43:07.509Z,99.99
2018-07-10T01:44:08.165Z,99.99
2018-07-10T01:45:07.629Z,99.99
2018-07-10T01:46:07.658Z,99.99
2018-07-10T01:47:07.730Z,99.99
2018-07-10T01:48:07.761Z,99.99
2018-07-10T01:49:07.848Z,99.99
2018-07-10T01:50:07.856Z,99.99
2018-07-10T01:51:07.930Z,99.99
2018-07-10T01:52:07.985Z,99.99
2018-07-10T01:53:08.010Z,99.99
2018-07-10T01:54:08.057Z,99.99
2018-07-10T01:55:08.107Z,99.99
2018-07-10T01:56:08.157Z,99.99
2018-07-10T01:57:08.231Z,99.99
2018-07-10T01:58:08.256Z,99.99
2018-07-10T01:59:08.306Z,99.99
2018-07-10T02:00:08.359Z,99.99
2018-07-10T02:01:08.409Z,99.99
2018-07-10T02:02:08.479Z,99.99
2018-07-10T02:03:08.508Z,99.99
2018-07-10T02:04:08.558Z,99.99
2018-07-10T02:05:08.607Z,99.99
2018-07-10T02:06:08.655Z,99.99
2018-07-10T02:07:08.730Z,99.99
2018-07-10T02:08:08.784Z,99.99
2018-07-10T02:09:08.806Z,99.99
2018-07-10T02:10:08.858Z,99.99
2018-07-10T02:11:08.912Z,99.99
2018-07-10T02:12:08.957Z,99.99
2018-07-10T02:13:09.044Z,99.99
2018-07-10T02:14:09.076Z,99.99
2018-07-10T02:15:09.107Z,99.99
2018-07-10T02:16:09.161Z,99.99
2018-07-10T02:17:09.204Z,99.99
2018-07-10T02:18:09.291Z,99.99
2018-07-10T02:19:09.309Z,99.99
2018-07-10T02:20:09.355Z,99.99
2018-07-10T02:21:09.405Z,99.99
2018-07-10T02:22:09.458Z,99.99
2018-07-10T02:23:09.538Z,99.99
2018-07-10T02:24:09.553Z,99.99
2018-07-10T02:25:09.606Z,99.99
2018-07-10T02:26:09.673Z,99.99
2018-07-10T02:27:09.703Z,99.99
2018-07-10T02:28:09.777Z,99.99
2018-07-10T02:29:09.828Z,99.99
2018-07-10T02:30:09.856Z,99.99
2018-07-10T02:31:09.904Z,99.99
2018-07-10T02:32:09.955Z,99.99
2018-07-10T02:33:10.007Z,99.99
2018-07-10T02:34:10.078Z,99.99
2018-07-10T02:35:10.104Z,99.99
2018-07-10T02:36:10.152Z,99.99
2018-07-10T02:37:10.201Z,99.99
2018-07-10T02:38:10.263Z,99.99
2018-07-10T02:39:10.325Z,99.99
2018-07-10T02:40:10.356Z,99.99
2018-07-10T02:41:10.404Z,99.99
2018-07-10T02:42:10.451Z,99.99
2018-07-10T02:43:10.500Z,99.99
2018-07-10T02:44:10.590Z,99.99
2018-07-10T02:45:10.601Z,99.99
2018-07-10T02:46:10.650Z,99.99
2018-07-10T02:47:10.700Z,99.99
2018-07-10T02:48:10.754Z,99.99
2018-07-10T02:49:10.825Z,99.99
2018-07-10T02:50:10.850Z,99.99
2018-07-10T02:51:10.922Z,99.99
2018-07-10T02:52:10.949Z,99.99
2018-07-10T02:53:11.007Z,99.99
2018-07-10T02:54:11.049Z,99.99
2018-07-10T02:55:11.100Z,99.99
2018-07-10T02:56:11.172Z,99.99
2018-07-10T02:57:11.202Z,99.99
2018-07-10T02:58:11.250Z,99.99
2018-07-10T02:59:11.297Z,99.99
2018-07-10T03:00:11.348Z,99.99
2018-07-10T03:01:11.420Z,99.99
2018-07-10T03:02:11.447Z,99.99
2018-07-10T03:03:11.497Z,99.99
2018-07-10T03:04:11.548Z,99.99
2018-07-10T03:05:11.601Z,99.99
2018-07-10T03:06:11.681Z,99.99
2018-07-10T03:07:11.699Z,99.99
2018-07-10T03:08:11.748Z,99.99
2018-07-10T03:09:11.797Z,99.99
2018-07-10T03:10:11.850Z,99.99
2018-07-10T03:11:11.919Z,99.99
2018-07-10T03:12:11.976Z,99.99
2018-07-10T03:13:12.004Z,99.99
2018-07-10T03:14:12.047Z,99.99
2018-07-10T03:15:12.100Z,99.99
2018-07-10T03:16:12.146Z,99.99
2018-07-10T03:17:12.220Z,99.99
2018-07-10T03:18:12.248Z,99.99
2018-07-10T03:19:12.295Z,99.99
2018-07-10T03:20:12.349Z,99.99
2018-07-10T03:21:12.394Z,99.99
2018-07-10T03:22:12.479Z,99.99
2018-07-10T03:23:12.494Z,99.99
2018-07-10T03:24:12.545Z,99.99
2018-07-10T03:25:12.596Z,99.99
2018-07-10T03:26:12.644Z,99.99
2018-07-10T03:27:12.718Z,99.99
2018-07-10T03:28:12.767Z,99.99
2018-07-10T03:29:12.794Z,99.99
2018-07-10T03:30:12.844Z,99.99
2018-07-10T03:31:12.898Z,99.99
2018-07-10T03:32:12.945Z,99.99
2018-07-10T03:33:13.018Z,99.99
2018-07-10T03:34:13.043Z,99.99
2018-07-10T03:35:13.098Z,99.99
2018-07-10T03:36:13.142Z,99.99
2018-07-10T03:37:13.218Z,99.99
2018-07-10T03:38:13.272Z,99.99
2018-07-10T03:39:13.292Z,99.99
2018-07-10T03:40:13.346Z,99.99
2018-07-10T03:41:13.391Z,99.99
2018-07-10T03:42:13.467Z,99.99
2018-07-10T03:43:13.517Z,99.99
2018-07-10T03:44:13.543Z,99.99
2018-07-10T03:45:13.596Z,99.99
2018-07-10T03:46:13.641Z,99.99
2018-07-10T03:47:13.691Z,99.99
2018-07-10T03:48:13.771Z,99.99
2018-07-10T03:49:13.791Z,99.99
2018-07-10T03:50:13.840Z,99.99
2018-07-10T03:51:13.891Z,99.99
2018-07-10T03:52:13.941Z,99.99
2018-07-10T03:53:14.015Z,99.99
2018-07-10T03:54:14.041Z,99.99
2018-07-10T03:55:14.097Z,99.99
2018-07-10T03:56:14.140Z,99.99
2018-07-10T03:57:14.190Z,99.99
2018-07-10T03:58:14.335Z,99.99
2018-07-10T03:59:14.290Z,99.99
2018-07-10T04:00:14.342Z,99.99
2018-07-10T04:01:14.391Z,99.99
2018-07-10T04:02:14.444Z,99.99
2018-07-10T04:03:14.514Z,99.99
2018-07-10T04:04:14.569Z,99.99
2018-07-10T04:05:14.591Z,99.99
2018-07-10T04:06:14.638Z,99.99
2018-07-10T04:07:14.691Z,99.99
2018-07-10T04:08:14.740Z,99.99
2018-07-10T04:09:14.825Z,99.99
2018-07-10T04:10:14.840Z,99.99
2018-07-10T04:11:14.896Z,99.99
2018-07-10T04:12:14.939Z,99.99
2018-07-10T04:13:14.990Z,99.99
2018-07-10T04:14:15.062Z,99.99
2018-07-10T04:15:15.092Z,99.99
2018-07-10T04:16:15.139Z,99.99
2018-07-10T04:17:15.189Z,99.99
2018-07-10T04:18:15.262Z,99.99
2018-07-10T04:19:15.291Z,99.99
2018-07-10T04:20:15.361Z,99.99
2018-07-10T04:21:15.388Z,99.99
2018-07-10T04:22:15.438Z,99.99
2018-07-10T04:23:15.519Z,99.99
2018-07-10T04:24:15.543Z,99.99
2018-07-10T04:25:15.620Z,99.99
2018-07-10T04:26:15.639Z,99.99
2018-07-10T04:27:15.688Z,99.99
2018-07-10T04:28:15.742Z,99.99
2018-07-10T04:29:15.787Z,99.99
2018-07-10T04:30:15.866Z,99.99
2018-07-10T04:31:15.891Z,99.99
2018-07-10T04:32:15.938Z,99.99
2018-07-10T04:33:15.987Z,99.99
2018-07-10T04:34:16.072Z,99.99
2018-07-10T04:35:16.088Z,99.99
2018-07-10T04:36:16.144Z,99.99
2018-07-10T04:37:16.190Z,99.99
2018-07-10T04:38:16.239Z,99.99
2018-07-10T04:39:16.310Z,99.99
2018-07-10T04:40:16.338Z,99.99
2018-07-10T04:41:16.412Z,99.99
2018-07-10T04:42:16.479Z,99.99
2018-07-10T04:43:16.490Z,99.99
2018-07-10T04:44:16.542Z,99.99
2018-07-10T04:45:16.612Z,99.99
2018-07-10T04:46:16.639Z,99.99
2018-07-10T04:47:16.697Z,99.99
2018-07-10T04:48:16.739Z,99.99
2018-07-10T04:49:16.837Z,99.99
2018-07-10T04:50:16.868Z,99.99
2018-07-10T04:51:16.889Z,99.99
2018-07-10T04:52:16.965Z,99.99
2018-07-10T04:53:16.989Z,99.99
2018-07-10T04:54:17.039Z,99.99
2018-07-10T04:55:17.114Z,99.99
2018-07-10T04:56:17.139Z,99.99
2018-07-10T04:57:17.190Z,99.99
2018-07-10T04:58:17.263Z,99.99
2018-07-10T04:59:17.292Z,99.99
2018-07-10T05:00:17.340Z,99.99
2018-07-10T05:01:17.434Z,99.99
2018-07-10T05:02:17.441Z,99.99
2018-07-10T05:03:17.516Z,99.99
2018-07-10T05:04:17.540Z,99.99
2018-07-10T05:05:17.592Z,99.99
2018-07-10T05:06:17.641Z,99.99
2018-07-10T05:07:17.745Z,99.99
2018-07-10T05:08:17.771Z,99.99
2018-07-10T05:09:17.790Z,99.99
2018-07-10T05:10:17.847Z,99.99
2018-07-10T05:11:17.895Z,99.99
2018-07-10T05:12:17.943Z,99.99
2018-07-10T05:13:18.017Z,99.99
2018-07-10T05:14:18.043Z,99.99
2018-07-10T05:15:18.094Z,99.99
2018-07-10T05:16:18.147Z,99.99
2018-07-10T05:17:18.194Z,99.99
2018-07-10T05:18:18.273Z,99.99
2018-07-10T05:19:18.297Z,99.99
2018-07-10T05:20:18.345Z,99.99
2018-07-10T05:21:18.428Z,99.99
2018-07-10T05:22:18.447Z,99.99
2018-07-10T05:23:18.520Z,99.99
2018-07-10T05:24:18.547Z,99.99
2018-07-10T05:25:18.595Z,99.99
2018-07-10T05:26:18.649Z,99.99
2018-07-10T05:27:18.724Z,99.99
2018-07-10T05:28:18.751Z,99.99
2018-07-10T05:29:18.819Z,99.99
2018-07-10T05:30:18.850Z,99.99
2018-07-10T05:31:18.905Z,99.99
2018-07-10T05:32:18.974Z,99.99
2018-07-10T05:33:19.721Z,99.63
2018-07-10T05:34:19.076Z,98.19
2018-07-10T05:35:19.105Z,96.75
2018-07-10T05:36:19.154Z,96.32
2018-07-10T05:37:19.268Z,96.66
2018-07-10T05:38:19.254Z,94.93
2018-07-10T05:39:19.328Z,97.24
2018-07-10T05:40:19.354Z,95.75
2018-07-10T05:41:19.406Z,97.52
2018-07-10T05:42:19.457Z,95.98
2018-07-10T05:43:19.510Z,93.96
2018-07-10T05:44:19.588Z,93.87
2018-07-10T05:45:19.608Z,93.68
2018-07-10T05:46:19.696Z,93.29
2018-07-10T05:47:19.710Z,93.82
2018-07-10T05:48:19.760Z,93.68
2018-07-10T05:49:19.833Z,93.49
2018-07-10T05:50:19.865Z,93.87
2018-07-10T05:51:19.910Z,93.49
2018-07-10T05:52:19.964Z,92.05
2018-07-10T05:53:20.014Z,93.49
2018-07-10T05:54:20.093Z,94.35
2018-07-10T05:55:20.117Z,93.29
2018-07-10T05:56:20.165Z,94.73
2018-07-10T05:57:20.214Z,93.49
2018-07-10T05:58:20.320Z,93.49
2018-07-10T05:59:20.346Z,94.26
2018-07-10T06:00:20.370Z,92.81
2018-07-10T06:01:20.417Z,93.10
2018-07-10T06:02:20.468Z,93.96
2018-07-10T06:03:20.522Z,92.72
2018-07-10T06:04:20.593Z,93.01
2018-07-10T06:05:20.622Z,93.77
2018-07-10T06:06:20.671Z,95.21
2018-07-10T06:07:20.722Z,92.72
2018-07-10T06:08:20.771Z,91.80
2018-07-10T06:09:20.845Z,91.90
2018-07-10T06:10:20.887Z,91.42
2018-07-10T06:11:20.928Z,91.71
2018-07-10T06:12:20.976Z,92.47
2018-07-10T06:13:21.026Z,93.73
2018-07-10T06:14:21.099Z,94.40
2018-07-10T06:15:21.127Z,93.58
2018-07-10T06:16:21.216Z,93.38
2018-07-10T06:17:21.228Z,93.58
2018-07-10T06:18:21.279Z,93.58
2018-07-10T06:19:21.330Z,92.38
2018-07-10T06:20:21.410Z,89.92
2018-07-10T06:21:21.433Z,89.83
2018-07-10T06:22:21.512Z,88.67
2018-07-10T06:23:21.534Z,88.43
2018-07-10T06:24:21.585Z,88.91
2018-07-10T06:25:21.665Z,88.04
2018-07-10T06:26:21.687Z,89.10
2018-07-10T06:27:21.745Z,88.71
2018-07-10T06:28:21.791Z,87.27
2018-07-10T06:29:21.842Z,88.91
2018-07-10T06:30:21.938Z,87.85
2018-07-10T06:31:21.944Z,87.27
2018-07-10T06:32:22.017Z,87.80
2018-07-10T06:33:22.043Z,86.83
2018-07-10T06:34:22.098Z,86.55
2018-07-10T06:35:22.156Z,83.37
2018-07-10T06:36:22.199Z,85.78
2018-07-10T06:37:22.272Z,84.43
2018-07-10T06:38:22.302Z,84.47
2018-07-10T06:39:22.352Z,83.03
2018-07-10T06:40:22.403Z,82.54
2018-07-10T06:41:22.458Z,81.77
2018-07-10T06:42:22.543Z,81.48
2018-07-10T06:43:22.562Z,80.62
2018-07-10T06:44:23.442Z,77.92
2018-07-10T06:45:22.660Z,79.27
2018-07-10T06:46:22.710Z,76.76
2018-07-10T06:47:22.787Z,75.61
2018-07-10T06:48:22.815Z,76.80
2018-07-10T06:49:22.868Z,76.51
2018-07-10T06:50:22.917Z,75.36
2018-07-10T06:51:22.969Z,75.88
2018-07-10T06:52:23.144Z,76.88
2018-07-10T06:53:23.389Z,76.43
2018-07-10T06:54:23.125Z,74.83
2018-07-10T06:55:23.177Z,72.36
2018-07-10T06:56:23.229Z,71.33
2018-07-10T06:57:23.307Z,71.81
2018-07-10T06:58:23.333Z,66.85
2018-07-10T06:59:23.409Z,64.14
2018-07-10T07:00:23.438Z,67.21
2018-07-10T07:01:23.492Z,67.17
2018-07-10T07:02:23.568Z,69.78
2018-07-10T07:03:23.603Z,71.00
2018-07-10T07:04:34.295Z,69.42
2018-07-10T07:05:23.702Z,72.22
2018-07-10T07:06:23.756Z,73.54
2018-07-10T07:07:23.808Z,71.42
2018-07-10T07:08:23.860Z,72.96
2018-07-10T07:09:23.912Z,73.73
2018-07-10T07:10:23.990Z,73.50
2018-07-10T07:11:24.021Z,75.72
2018-07-10T07:12:24.071Z,75.37
2018-07-10T07:13:24.122Z,75.60
2018-07-10T07:14:24.187Z,72.06
2018-07-10T07:15:24.253Z,69.92
2018-07-10T07:16:24.285Z,66.91
2018-07-10T07:17:24.334Z,65.88
2018-07-10T07:18:24.391Z,67.27
2018-07-10T07:19:24.443Z,68.11
2018-07-10T07:20:24.788Z,66.08
2018-07-10T07:21:24.552Z,64.89
2018-07-10T07:22:24.600Z,64.53
2018-07-10T07:23:24.658Z,68.08
2018-07-10T07:24:24.712Z,67.88
2018-07-10T07:25:24.787Z,67.59
2018-07-10T07:26:24.819Z,70.01
2018-07-10T07:27:24.867Z,69.01
2018-07-10T07:28:24.922Z,69.01
2018-07-10T07:29:25.044Z,69.01
2018-07-10T07:30:25.071Z,67.94
2018-07-10T07:31:25.081Z,70.26
2018-07-10T07:32:25.141Z,70.42
2018-07-10T07:33:25.189Z,70.52
2018-07-10T07:34:25.244Z,71.30
2018-07-10T07:35:25.343Z,72.74
2018-07-10T07:36:25.353Z,72.32
2018-07-10T07:37:25.403Z,70.20
2018-07-10T07:38:25.459Z,72.22
2018-07-10T07:39:25.514Z,72.03
2018-07-10T07:40:25.590Z,72.48
2018-07-10T07:41:25.615Z,70.94
2018-07-10T07:42:25.672Z,74.12
2018-07-10T07:43:25.750Z,74.69
2018-07-10T07:44:25.876Z,75.57
2018-07-10T07:45:25.828Z,73.63
2018-07-10T07:46:25.884Z,73.41
2018-07-10T07:47:25.941Z,74.47
2018-07-10T07:48:26.022Z,77.65
2018-07-10T07:49:26.042Z,75.57
2018-07-10T07:50:26.097Z,75.34
2018-07-10T07:51:26.148Z,73.93
2018-07-10T07:52:26.207Z,75.47
2018-07-10T07:53:26.281Z,77.40
2018-07-10T07:54:26.338Z,77.98
2018-07-10T07:55:26.369Z,76.05
2018-07-10T07:56:26.414Z,75.37
2018-07-10T07:57:26.469Z,77.92
2018-07-10T07:58:26.526Z,74.16
2018-07-10T07:59:26.597Z,76.18
2018-07-10T08:00:26.664Z,75.22
2018-07-10T08:01:26.679Z,75.12
2018-07-10T08:02:26.736Z,74.44
2018-07-10T08:03:26.818Z,73.52
2018-07-10T08:04:26.863Z,75.16
2018-07-10T08:05:26.929Z,73.80
2018-07-10T08:06:26.955Z,72.20
2018-07-10T08:07:27.002Z,70.88
2018-07-10T08:08:27.056Z,74.27
2018-07-10T08:09:27.108Z,70.30
2018-07-10T08:10:27.184Z,73.04
2018-07-10T08:11:27.213Z,74.21
2018-07-10T08:12:27.267Z,68.95
2018-07-10T08:13:27.321Z,67.11
2018-07-10T08:14:27.376Z,67.30
2018-07-10T08:15:27.453Z,67.11
2018-07-10T08:16:27.481Z,65.47
2018-07-10T08:17:27.535Z,65.37
2018-07-10T08:18:27.586Z,63.82
2018-07-10T08:19:27.641Z,64.31
2018-07-10T08:20:27.734Z,63.82
2018-07-10T08:21:27.750Z,65.53
2018-07-10T08:22:27.801Z,68.91
2018-07-10T08:23:27.856Z,71.42
2018-07-10T08:24:27.938Z,70.56
2018-07-10T08:25:27.997Z,72.39
2018-07-10T08:26:28.019Z,71.81
2018-07-10T08:27:28.080Z,71.52
2018-07-10T08:28:28.136Z,72.68
2018-07-10T08:29:28.180Z,72.68
2018-07-10T08:30:28.265Z,70.94
2018-07-10T08:31:28.289Z,69.10
2018-07-10T08:32:28.342Z,69.17
2018-07-10T08:33:28.437Z,67.72
2018-07-10T08:34:28.448Z,68.46
2018-07-10T08:35:28.535Z,68.04
2018-07-10T08:36:28.581Z,69.29
2018-07-10T08:37:28.613Z,71.03
2018-07-10T08:38:28.665Z,70.74
2018-07-10T08:39:28.720Z,71.61
2018-07-10T08:40:28.771Z,72.00
2018-07-10T08:41:28.849Z,71.86
2018-07-10T08:42:28.880Z,72.67
2018-07-10T08:43:28.934Z,72.77
2018-07-10T08:44:28.992Z,73.63
2018-07-10T08:45:29.038Z,74.12
2018-07-10T08:46:29.122Z,74.31
2018-07-10T08:47:29.155Z,74.12
2018-07-10T08:48:29.206Z,74.35
2018-07-10T08:49:29.252Z,75.41
2018-07-10T08:50:29.309Z,75.60
2018-07-10T08:51:29.393Z,76.28
2018-07-10T08:52:29.419Z,71.64
2018-07-10T08:53:29.466Z,71.84
2018-07-10T08:54:29.524Z,71.42
2018-07-10T08:55:29.574Z,71.12
2018-07-10T08:56:29.655Z,73.77
2018-07-10T08:57:29.679Z,73.58
2018-07-10T08:58:29.733Z,73.09
2018-07-10T08:59:29.789Z,72.94
2018-07-10T09:00:30.496Z,74.13
2018-07-10T09:01:29.929Z,69.94
2018-07-10T09:02:29.977Z,70.32
2018-07-10T09:03:30.006Z,70.26
2018-07-10T09:04:30.056Z,69.20
2018-07-10T09:05:30.112Z,71.14
2018-07-10T09:06:30.166Z,72.24
2018-07-10T09:07:30.241Z,65.56
2018-07-10T09:08:30.275Z,67.33
2018-07-10T09:09:30.323Z,70.92
2018-07-10T09:10:30.376Z,67.82
2018-07-10T09:11:30.431Z,66.66
2018-07-10T09:12:30.513Z,65.88
2018-07-10T09:13:30.560Z,69.75
2018-07-10T09:14:30.594Z,68.30
2018-07-10T09:15:30.649Z,69.17
2018-07-10T09:16:30.709Z,67.33
2018-07-10T09:17:30.780Z,66.17
2018-07-10T09:18:30.833Z,64.24
2018-07-10T09:19:30.870Z,63.76
2018-07-10T09:20:30.924Z,61.24
2018-07-10T09:21:30.977Z,59.63
2018-07-10T09:22:31.052Z,62.24
2018-07-10T09:23:31.085Z,63.28
2018-07-10T09:24:31.159Z,64.63
2018-07-10T09:25:31.193Z,67.17
2018-07-10T09:26:31.247Z,66.01
2018-07-10T09:27:31.298Z,66.98
2018-07-10T09:28:31.376Z,66.40
2018-07-10T09:29:31.406Z,66.78
2018-07-10T09:30:31.486Z,66.36
2018-07-10T09:31:31.514Z,66.75
2018-07-10T09:32:32.007Z,67.91
2018-07-10T09:33:31.709Z,67.82
2018-07-10T09:34:31.677Z,69.65
2018-07-10T09:35:31.733Z,68.98
2018-07-10T09:36:31.786Z,68.26
2018-07-10T09:37:31.840Z,69.49
2018-07-10T09:38:31.929Z,68.91
2018-07-10T09:39:31.947Z,71.70
2018-07-10T09:40:32.531Z,71.42
2018-07-10T09:41:32.053Z,74.51
2018-07-10T09:42:32.106Z,72.00
2018-07-10T09:43:32.189Z,73.63
2018-07-10T09:44:32.214Z,72.38
2018-07-10T09:45:32.267Z,72.67
2018-07-10T09:46:32.322Z,73.35
2018-07-10T09:47:32.376Z,74.31
2018-07-10T09:48:32.457Z,70.54
2018-07-10T09:49:32.479Z,72.48
2018-07-10T09:50:32.533Z,74.64
2018-07-10T09:51:32.589Z,76.28
2018-07-10T09:52:32.640Z,75.60
2018-07-10T09:53:32.724Z,75.60
2018-07-10T09:54:32.744Z,71.36
2018-07-10T09:55:32.799Z,70.00
2018-07-10T09:56:32.886Z,70.68
2018-07-10T09:57:32.907Z,71.06
2018-07-10T09:58:32.963Z,73.48
2018-07-10T09:59:33.044Z,75.22
2018-07-10T10:00:33.066Z,77.19
2018-07-10T10:01:33.117Z,73.90
2018-07-10T10:02:33.177Z,70.62
2018-07-10T10:03:33.235Z,70.04
2018-07-10T10:04:33.312Z,70.04
2018-07-10T10:05:33.358Z,71.48
2018-07-10T10:06:33.388Z,70.52
2018-07-10T10:07:33.440Z,70.42
2018-07-10T10:08:33.496Z,71.00
2018-07-10T10:09:33.585Z,71.48
2018-07-10T10:10:33.600Z,72.36
2018-07-10T10:11:33.654Z,70.65
2018-07-10T10:12:33.709Z,72.88
2018-07-10T10:13:33.760Z,69.68
2018-07-10T10:14:33.846Z,66.69
2018-07-10T10:15:33.870Z,68.72
2018-07-10T10:16:33.924Z,67.56
2018-07-10T10:17:33.975Z,66.27
2018-07-10T10:18:34.033Z,68.49
2018-07-10T10:19:34.105Z,67.91
2018-07-10T10:20:34.137Z,67.14
2018-07-10T10:21:34.213Z,68.10
2018-07-10T10:22:34.247Z,68.88
2018-07-10T10:23:34.300Z,68.01
2018-07-10T10:24:34.353Z,68.01
2018-07-10T10:25:34.405Z,65.78
2018-07-10T10:26:34.488Z,67.82
2018-07-10T10:27:34.514Z,63.95
2018-07-10T10:28:34.569Z,66.08
2018-07-10T10:29:34.622Z,64.92
2018-07-10T10:30:34.676Z,68.62
2018-07-10T10:31:34.770Z,69.88
2018-07-10T10:32:34.782Z,70.46
2018-07-10T10:33:34.839Z,62.73
2018-07-10T10:34:34.888Z,64.69
2018-07-10T10:35:35.000Z,68.17
2018-07-10T10:36:35.028Z,66.43
2018-07-10T10:37:35.051Z,66.24
2018-07-10T10:38:35.105Z,62.47
2018-07-10T10:39:35.162Z,62.85
2018-07-10T10:40:35.212Z,63.89
2018-07-10T10:41:35.370Z,67.11
2018-07-10T10:42:35.322Z,65.43
2018-07-10T10:43:35.375Z,66.88
2018-07-10T10:44:35.434Z,64.18
2018-07-10T10:45:35.481Z,66.98
2018-07-10T10:46:35.560Z,67.75
2018-07-10T10:47:35.625Z,68.20
2018-07-10T10:48:35.644Z,69.01
2018-07-10T10:49:35.701Z,68.82
2018-07-10T10:50:35.751Z,69.10
2018-07-10T10:51:35.805Z,70.17
2018-07-10T10:52:35.882Z,65.66
2018-07-10T10:53:35.936Z,67.21
2018-07-10T10:54:35.967Z,70.01
2018-07-10T10:55:36.040Z,71.36
2018-07-10T10:56:36.076Z,70.59
2018-07-10T10:57:36.129Z,68.75
2018-07-10T10:58:36.209Z,68.17
2018-07-10T10:59:36.254Z,70.59
2018-07-10T11:00:36.291Z,69.24
2018-07-10T11:01:36.345Z,68.11
2018-07-10T11:02:36.453Z,66.37
2018-07-10T11:03:36.479Z,67.82
2018-07-10T11:04:36.509Z,67.37
2018-07-10T11:05:36.564Z,67.91
2018-07-10T11:06:36.616Z,66.08
2018-07-10T11:07:36.675Z,67.43
2018-07-10T11:08:36.751Z,64.72
2018-07-10T11:09:36.780Z,64.14
2018-07-10T11:10:36.837Z,64.40
2018-07-10T11:11:36.888Z,64.98
2018-07-10T11:12:36.942Z,67.91
2018-07-10T11:13:37.020Z,67.43
2018-07-10T11:14:37.089Z,66.14
2018-07-10T11:15:37.106Z,65.56
2018-07-10T11:16:37.172Z,65.53
2018-07-10T11:17:37.220Z,65.37
2018-07-10T11:18:37.273Z,67.11
2018-07-10T11:19:37.349Z,66.98
2018-07-10T11:20:37.378Z,68.43
2018-07-10T11:21:37.433Z,66.20
2018-07-10T11:22:37.495Z,66.88
2018-07-10T11:23:37.563Z,65.63
2018-07-10T11:24:37.595Z,69.10
2018-07-10T11:25:37.676Z,70.56
2018-07-10T11:26:37.707Z,68.04
2018-07-10T11:27:37.757Z,68.24
2018-07-10T11:28:37.838Z,69.33
2018-07-10T11:29:37.867Z,69.82
2018-07-10T11:30:37.942Z,69.72
2018-07-10T11:31:37.975Z,67.49
2018-07-10T11:32:38.031Z,66.33
2018-07-10T11:33:38.082Z,64.69
2018-07-10T11:34:38.136Z,66.91
2018-07-10T11:35:38.227Z,65.95
2018-07-10T11:36:38.248Z,67.98
2018-07-10T11:37:38.300Z,68.17
2018-07-10T11:38:38.358Z,65.75
2018-07-10T11:39:38.410Z,65.40
2018-07-10T11:40:38.483Z,64.85
2018-07-10T11:41:38.516Z,67.50
2018-07-10T11:42:38.570Z,64.89
2018-07-10T11:43:38.627Z,67.14
2018-07-10T11:44:38.679Z,62.43
2018-07-10T11:45:38.812Z,64.75
2018-07-10T11:46:38.821Z,63.91
2018-07-10T11:47:38.846Z,59.36
2018-07-10T11:48:38.900Z,60.06
2018-07-10T11:49:38.953Z,58.93
2018-07-10T11:50:39.016Z,62.91
2018-07-10T11:51:39.096Z,57.40
2018-07-10T11:52:39.122Z,56.92
2018-07-10T11:53:39.179Z,56.82
2018-07-10T11:54:39.234Z,56.72
2018-07-10T11:55:39.295Z,55.24
2018-07-10T11:56:39.374Z,55.53
2018-07-10T11:57:39.403Z,55.31
2018-07-10T11:58:39.458Z,55.89
2018-07-10T11:59:39.520Z,55.92
2018-07-10T12:00:39.590Z,54.07
2018-07-10T12:01:39.654Z,59.80
2018-07-10T12:02:39.712Z,55.63
2018-07-10T12:03:39.748Z,55.73
2018-07-10T12:04:39.800Z,57.28
2018-07-10T12:05:39.858Z,55.63
2018-07-10T12:06:39.954Z,59.70
2018-07-10T12:07:39.973Z,60.19
2018-07-10T12:08:40.029Z,55.73
2018-07-10T12:09:40.109Z,56.70
2018-07-10T12:10:40.143Z,59.41
2018-07-10T12:11:40.231Z,59.51
2018-07-10T12:12:40.263Z,55.82
2018-07-10T12:13:40.318Z,59.03
2018-07-10T12:14:40.877Z,59.70
2018-07-10T12:15:40.431Z,58.73
2018-07-10T12:16:40.513Z,61.45
2018-07-10T12:17:40.546Z,57.18
2018-07-10T12:18:40.631Z,59.70
2018-07-10T12:19:40.662Z,60.12
2018-07-10T12:20:40.732Z,56.92
2018-07-10T12:21:40.804Z,58.37
2018-07-10T12:22:40.833Z,58.08
2018-07-10T12:23:40.916Z,55.63
2018-07-10T12:24:40.948Z,53.97
2018-07-10T12:25:41.011Z,54.24
2018-07-10T12:26:41.070Z,58.22
2018-07-10T12:27:41.123Z,55.47
2018-07-10T12:28:41.205Z,58.22
2018-07-10T12:29:41.266Z,58.09
2018-07-10T12:30:41.292Z,58.29
2018-07-10T12:31:41.354Z,59.52
2018-07-10T12:32:41.408Z,58.94
2018-07-10T12:33:41.469Z,61.17
2018-07-10T12:34:41.561Z,64.75
2018-07-10T12:35:41.585Z,64.88
2018-07-10T12:36:41.639Z,61.10
2018-07-10T12:37:41.703Z,58.36
2018-07-10T12:38:41.756Z,59.69
2018-07-10T12:39:41.839Z,61.82
2018-07-10T12:40:41.865Z,59.30
2018-07-10T12:41:41.994Z,62.72
2018-07-10T12:42:41.982Z,59.52
2018-07-10T12:43:42.050Z,60.49
2018-07-10T12:44:42.120Z,58.52
2018-07-10T12:45:42.171Z,59.49
2018-07-10T12:46:42.229Z,60.68
2018-07-10T12:47:42.285Z,60.30
2018-07-10T12:48:42.321Z,58.67
2018-07-10T12:49:42.376Z,58.00
2018-07-10T12:50:42.457Z,59.42
2018-07-10T12:51:42.489Z,59.61
2018-07-10T12:52:42.545Z,61.07